sensor_id;sensor_type;location;lat;lon;timestamp;temperature;humidity
64599;SHT31;51008;51.504;11.548;2022-11-20T00:04:28;-4.61;88.94
64599;SHT31;51008;51.504;11.548;2022-11-20T00:09:29;-4.68;89.23
64599;SHT31;51008;51.504;11.548;2022-11-20T00:14:30;-4.68;90.37
64599;SHT31;51008;51.504;11.548;2022-11-20T00:19:31;-4.62;90.28
64599;SHT31;51008;51.504;11.548;2022-11-20T00:24:32;-4.72;89.87
64599;SHT31;51008;51.504;11.548;2022-11-20T00:29:33;-4.82;90.60
64599;SHT31;51008;51.504;11.548;2022-11-20T00:34:34;-4.90;90.36
64599;SHT31;51008;51.504;11.548;2022-11-20T00:39:35;-4.96;90.73
64599;SHT31;51008;51.504;11.548;2022-11-20T00:44:35;-5.00;90.84
64599;SHT31;51008;51.504;11.548;2022-11-20T00:49:36;-5.03;91.15
64599;SHT31;51008;51.504;11.548;2022-11-20T00:54:37;-5.00;91.34
64599;SHT31;51008;51.504;11.548;2022-11-20T00:59:38;-4.99;91.59
64599;SHT31;51008;51.504;11.548;2022-11-20T01:04:39;-4.97;91.84
64599;SHT31;51008;51.504;11.548;2022-11-20T01:09:40;-4.99;92.08
64599;SHT31;51008;51.504;11.548;2022-11-20T01:14:41;-4.96;92.07
64599;SHT31;51008;51.504;11.548;2022-11-20T01:19:42;-4.93;92.22
64599;SHT31;51008;51.504;11.548;2022-11-20T01:24:43;-4.86;92.41
64599;SHT31;51008;51.504;11.548;2022-11-20T01:29:44;-4.96;92.36
64599;SHT31;51008;51.504;11.548;2022-11-20T01:34:45;-5.08;91.52
64599;SHT31;51008;51.504;11.548;2022-11-20T01:39:46;-5.11;91.67
64599;SHT31;51008;51.504;11.548;2022-11-20T01:44:56;-5.30;91.73
64599;SHT31;51008;51.504;11.548;2022-11-20T01:50:05;-5.32;91.87
64599;SHT31;51008;51.504;11.548;2022-11-20T01:55:14;-5.38;91.94
64599;SHT31;51008;51.504;11.548;2022-11-20T02:00:17;-5.42;92.05
64599;SHT31;51008;51.504;11.548;2022-11-20T02:10:32;-5.62;91.73
64599;SHT31;51008;51.504;11.548;2022-11-20T02:15:33;-5.67;91.79
64599;SHT31;51008;51.504;11.548;2022-11-20T02:20:35;-5.70;92.03
64599;SHT31;51008;51.504;11.548;2022-11-20T02:25:36;-5.58;93.35
64599;SHT31;51008;51.504;11.548;2022-11-20T02:30:38;-5.63;92.50
64599;SHT31;51008;51.504;11.548;2022-11-20T02:35:42;-5.76;92.79
64599;SHT31;51008;51.504;11.548;2022-11-20T02:40:43;-5.82;92.77
64599;SHT31;51008;51.504;11.548;2022-11-20T02:45:47;-5.56;93.61
64599;SHT31;51008;51.504;11.548;2022-11-20T02:50:48;-5.56;93.43
64599;SHT31;51008;51.504;11.548;2022-11-20T02:55:49;-5.52;93.55
64599;SHT31;51008;51.504;11.548;2022-11-20T03:00:51;-5.65;92.62
64599;SHT31;51008;51.504;11.548;2022-11-20T03:05:53;-5.79;93.11
64599;SHT31;51008;51.504;11.548;2022-11-20T03:10:53;-5.91;92.19
64599;SHT31;51008;51.504;11.548;2022-11-20T03:15:54;-6.04;92.36
64599;SHT31;51008;51.504;11.548;2022-11-20T03:20:59;-6.10;92.34
64599;SHT31;51008;51.504;11.548;2022-11-20T03:26:10;-6.19;92.28
64599;SHT31;51008;51.504;11.548;2022-11-20T03:31:13;-6.25;92.86
64599;SHT31;51008;51.504;11.548;2022-11-20T03:36:16;-6.22;92.98
64599;SHT31;51008;51.504;11.548;2022-11-20T03:41:20;-6.24;92.94
64599;SHT31;51008;51.504;11.548;2022-11-20T03:46:22;-6.07;94.43
64599;SHT31;51008;51.504;11.548;2022-11-20T03:51:26;-6.07;93.65
64599;SHT31;51008;51.504;11.548;2022-11-20T03:56:29;-6.07;93.57
64599;SHT31;51008;51.504;11.548;2022-11-20T04:01:35;-5.86;94.01
64599;SHT31;51008;51.504;11.548;2022-11-20T04:06:37;-5.74;94.12
64599;SHT31;51008;51.504;11.548;2022-11-20T04:11:40;-5.42;94.98
64599;SHT31;51008;51.504;11.548;2022-11-20T04:16:41;-5.21;94.16
64599;SHT31;51008;51.504;11.548;2022-11-20T04:21:43;-5.10;93.52
64599;SHT31;51008;51.504;11.548;2022-11-20T04:26:44;-5.04;92.91
64599;SHT31;51008;51.504;11.548;2022-11-20T04:31:45;-4.99;92.21
64599;SHT31;51008;51.504;11.548;2022-11-20T04:36:46;-5.03;91.97
64599;SHT31;51008;51.504;11.548;2022-11-20T04:41:47;-5.01;91.59
64599;SHT31;51008;51.504;11.548;2022-11-20T04:46:48;-4.93;91.36
64599;SHT31;51008;51.504;11.548;2022-11-20T04:51:53;-4.92;90.52
64599;SHT31;51008;51.504;11.548;2022-11-20T04:56:54;-4.89;91.41
64599;SHT31;51008;51.504;11.548;2022-11-20T05:01:55;-4.99;92.42
64599;SHT31;51008;51.504;11.548;2022-11-20T05:06:55;-5.18;93.13
64599;SHT31;51008;51.504;11.548;2022-11-20T05:11:56;-5.17;93.38
64599;SHT31;51008;51.504;11.548;2022-11-20T05:16:57;-5.27;93.59
64599;SHT31;51008;51.504;11.548;2022-11-20T05:21:58;-5.25;93.49
64599;SHT31;51008;51.504;11.548;2022-11-20T05:26:59;-5.35;93.59
64599;SHT31;51008;51.504;11.548;2022-11-20T05:32:00;-5.41;93.42
64599;SHT31;51008;51.504;11.548;2022-11-20T05:37:02;-5.58;92.83
64599;SHT31;51008;51.504;11.548;2022-11-20T05:42:03;-5.79;92.28
64599;SHT31;51008;51.504;11.548;2022-11-20T05:47:05;-5.90;92.97
64599;SHT31;51008;51.504;11.548;2022-11-20T05:52:06;-5.83;93.45
64599;SHT31;51008;51.504;11.548;2022-11-20T05:57:07;-5.77;92.94
64599;SHT31;51008;51.504;11.548;2022-11-20T06:02:08;-5.89;92.70
64599;SHT31;51008;51.504;11.548;2022-11-20T06:07:09;-5.82;93.14
64599;SHT31;51008;51.504;11.548;2022-11-20T06:12:10;-5.62;94.27
64599;SHT31;51008;51.504;11.548;2022-11-20T06:17:11;-5.51;94.20
64599;SHT31;51008;51.504;11.548;2022-11-20T06:22:12;-5.41;93.78
64599;SHT31;51008;51.504;11.548;2022-11-20T06:27:13;-5.38;93.54
64599;SHT31;51008;51.504;11.548;2022-11-20T06:32:14;-5.42;93.67
64599;SHT31;51008;51.504;11.548;2022-11-20T06:37:15;-5.42;93.44
64599;SHT31;51008;51.504;11.548;2022-11-20T06:42:16;-5.54;93.66
64599;SHT31;51008;51.504;11.548;2022-11-20T06:47:17;-5.54;93.29
64599;SHT31;51008;51.504;11.548;2022-11-20T06:52:18;-5.21;92.18
64599;SHT31;51008;51.504;11.548;2022-11-20T06:57:19;-4.80;90.56
64599;SHT31;51008;51.504;11.548;2022-11-20T07:02:20;-4.45;89.16
64599;SHT31;51008;51.504;11.548;2022-11-20T07:07:21;-4.37;88.63
64599;SHT31;51008;51.504;11.548;2022-11-20T07:12:22;-4.25;87.91
64599;SHT31;51008;51.504;11.548;2022-11-20T07:17:23;-4.15;87.98
64599;SHT31;51008;51.504;11.548;2022-11-20T07:22:24;-3.81;87.83
64599;SHT31;51008;51.504;11.548;2022-11-20T07:27:25;-3.72;89.14
64599;SHT31;51008;51.504;11.548;2022-11-20T07:32:26;-3.40;88.65
64599;SHT31;51008;51.504;11.548;2022-11-20T07:37:27;-2.84;86.85
64599;SHT31;51008;51.504;11.548;2022-11-20T07:42:28;-2.42;84.86
64599;SHT31;51008;51.504;11.548;2022-11-20T07:47:36;-2.09;82.53
64599;SHT31;51008;51.504;11.548;2022-11-20T07:52:37;-2.01;82.29
64599;SHT31;51008;51.504;11.548;2022-11-20T07:57:38;-2.21;83.11
64599;SHT31;51008;51.504;11.548;2022-11-20T08:02:40;-2.13;82.46
64599;SHT31;51008;51.504;11.548;2022-11-20T08:07:43;-1.84;82.28
64599;SHT31;51008;51.504;11.548;2022-11-20T08:12:51;-1.53;81.66
64599;SHT31;51008;51.504;11.548;2022-11-20T08:17:59;-1.28;80.98
64599;SHT31;51008;51.504;11.548;2022-11-20T08:23:01;-0.88;79.99
64599;SHT31;51008;51.504;11.548;2022-11-20T08:28:07;-0.84;78.47
64599;SHT31;51008;51.504;11.548;2022-11-20T08:33:09;-0.80;79.64
64599;SHT31;51008;51.504;11.548;2022-11-20T08:38:10;-0.14;77.79
64599;SHT31;51008;51.504;11.548;2022-11-20T08:43:11;-0.01;76.20
64599;SHT31;51008;51.504;11.548;2022-11-20T08:48:12;0.21;76.04
64599;SHT31;51008;51.504;11.548;2022-11-20T08:53:13;0.31;75.26
64599;SHT31;51008;51.504;11.548;2022-11-20T08:58:14;0.23;75.20
64599;SHT31;51008;51.504;11.548;2022-11-20T09:03:15;0.59;74.61
64599;SHT31;51008;51.504;11.548;2022-11-20T09:08:16;0.82;73.83
64599;SHT31;51008;51.504;11.548;2022-11-20T09:13:17;1.01;72.30
64599;SHT31;51008;51.504;11.548;2022-11-20T09:18:18;0.76;72.51
64599;SHT31;51008;51.504;11.548;2022-11-20T09:23:19;0.28;74.47
64599;SHT31;51008;51.504;11.548;2022-11-20T09:28:20;-0.03;75.00
64599;SHT31;51008;51.504;11.548;2022-11-20T09:33:21;-0.10;75.65
64599;SHT31;51008;51.504;11.548;2022-11-20T09:38:22;0.31;75.58
64599;SHT31;51008;51.504;11.548;2022-11-20T09:53:56;-0.32;76.39
64599;SHT31;51008;51.504;11.548;2022-11-20T09:59:02;-0.49;77.38
64599;SHT31;51008;51.504;11.548;2022-11-20T10:04:13;-0.66;77.48
64599;SHT31;51008;51.504;11.548;2022-11-20T10:09:28;-0.56;78.43
64599;SHT31;51008;51.504;11.548;2022-11-20T10:20:07;-0.60;78.20
64599;SHT31;51008;51.504;11.548;2022-11-20T10:25:19;0.15;78.05
64599;SHT31;51008;51.504;11.548;2022-11-20T10:30:21;0.49;76.57
64599;SHT31;51008;51.504;11.548;2022-11-20T10:35:29;0.49;75.49
64599;SHT31;51008;51.504;11.548;2022-11-20T10:40:46;0.55;76.82
64599;SHT31;51008;51.504;11.548;2022-11-20T10:46:08;0.48;75.90
64599;SHT31;51008;51.504;11.548;2022-11-20T10:56:47;0.42;77.13
64599;SHT31;51008;51.504;11.548;2022-11-20T11:01:50;0.02;79.20
64599;SHT31;51008;51.504;11.548;2022-11-20T11:06:55;-0.14;80.04
64599;SHT31;51008;51.504;11.548;2022-11-20T11:11:59;0.09;79.43
64599;SHT31;51008;51.504;11.548;2022-11-20T11:17:00;0.47;79.08
64599;SHT31;51008;51.504;11.548;2022-11-20T11:22:11;0.59;78.11
64599;SHT31;51008;51.504;11.548;2022-11-20T11:27:16;0.66;78.35
64599;SHT31;51008;51.504;11.548;2022-11-20T11:32:19;0.83;78.17
64599;SHT31;51008;51.504;11.548;2022-11-20T11:37:21;0.76;78.48
64599;SHT31;51008;51.504;11.548;2022-11-20T11:42:22;0.54;79.35
64599;SHT31;51008;51.504;11.548;2022-11-20T11:47:31;0.49;79.78
64599;SHT31;51008;51.504;11.548;2022-11-20T11:52:38;0.44;79.61
64599;SHT31;51008;51.504;11.548;2022-11-20T12:13:50;0.89;79.17
64599;SHT31;51008;51.504;11.548;2022-11-20T12:18:53;1.10;79.20
64599;SHT31;51008;51.504;11.548;2022-11-20T12:29:32;0.92;78.29
64599;SHT31;51008;51.504;11.548;2022-11-20T12:39:48;0.99;78.91
64599;SHT31;51008;51.504;11.548;2022-11-20T13:01:21;0.38;79.47
64599;SHT31;51008;51.504;11.548;2022-11-20T13:06:24;0.36;79.38
64599;SHT31;51008;51.504;11.548;2022-11-20T13:11:35;0.31;79.28
64599;SHT31;51008;51.504;11.548;2022-11-20T13:16:45;0.38;78.92
64599;SHT31;51008;51.504;11.548;2022-11-20T13:21:49;0.24;79.93
64599;SHT31;51008;51.504;11.548;2022-11-20T13:27:19;0.23;79.86
64599;SHT31;51008;51.504;11.548;2022-11-20T13:32:21;-0.04;81.79
64599;SHT31;51008;51.504;11.548;2022-11-20T13:37:34;0.00;81.79
64599;SHT31;51008;51.504;11.548;2022-11-20T13:42:39;0.03;82.30
64599;SHT31;51008;51.504;11.548;2022-11-20T13:47:46;0.04;82.65
64599;SHT31;51008;51.504;11.548;2022-11-20T13:58:30;-0.01;82.64
64599;SHT31;51008;51.504;11.548;2022-11-20T14:03:30;-0.04;83.11
64599;SHT31;51008;51.504;11.548;2022-11-20T14:08:42;0.03;83.00
64599;SHT31;51008;51.504;11.548;2022-11-20T14:14:03;-0.05;83.07
64599;SHT31;51008;51.504;11.548;2022-11-20T14:24:23;-0.21;85.53
64599;SHT31;51008;51.504;11.548;2022-11-20T14:29:36;-0.36;86.82
64599;SHT31;51008;51.504;11.548;2022-11-20T14:34:39;-0.39;87.54
64599;SHT31;51008;51.504;11.548;2022-11-20T14:39:42;-0.50;87.98
64599;SHT31;51008;51.504;11.548;2022-11-20T14:44:44;-0.59;88.95
64599;SHT31;51008;51.504;11.548;2022-11-20T14:49:46;-0.70;89.43
64599;SHT31;51008;51.504;11.548;2022-11-20T14:54:58;-0.74;89.69
64599;SHT31;51008;51.504;11.548;2022-11-20T15:05:13;-0.83;90.36
64599;SHT31;51008;51.504;11.548;2022-11-20T15:10:27;-0.98;90.68
64599;SHT31;51008;51.504;11.548;2022-11-20T15:15:50;-1.09;91.30
64599;SHT31;51008;51.504;11.548;2022-11-20T15:20:57;-1.11;91.10
64599;SHT31;51008;51.504;11.548;2022-11-20T15:25:58;-1.12;91.19
64599;SHT31;51008;51.504;11.548;2022-11-20T15:31:00;-1.15;91.58
64599;SHT31;51008;51.504;11.548;2022-11-20T15:36:01;-1.21;91.55
64599;SHT31;51008;51.504;11.548;2022-11-20T15:41:03;-1.24;92.10
64599;SHT31;51008;51.504;11.548;2022-11-20T15:46:15;-1.36;92.02
64599;SHT31;51008;51.504;11.548;2022-11-20T15:51:37;-1.34;92.15
64599;SHT31;51008;51.504;11.548;2022-11-20T15:56:39;-1.31;92.01
64599;SHT31;51008;51.504;11.548;2022-11-20T16:01:41;-1.38;92.08
64599;SHT31;51008;51.504;11.548;2022-11-20T16:06:42;-1.43;92.29
64599;SHT31;51008;51.504;11.548;2022-11-20T16:11:43;-1.46;92.42
64599;SHT31;51008;51.504;11.548;2022-11-20T16:16:44;-1.55;92.74
64599;SHT31;51008;51.504;11.548;2022-11-20T16:21:45;-1.55;92.97
64599;SHT31;51008;51.504;11.548;2022-11-20T16:26:47;-1.55;92.88
64599;SHT31;51008;51.504;11.548;2022-11-20T16:31:48;-1.64;92.67
64599;SHT31;51008;51.504;11.548;2022-11-20T16:36:49;-1.71;92.95
64599;SHT31;51008;51.504;11.548;2022-11-20T16:41:50;-1.71;92.87
64599;SHT31;51008;51.504;11.548;2022-11-20T16:46:51;-1.70;92.98
64599;SHT31;51008;51.504;11.548;2022-11-20T16:51:52;-1.70;92.76
64599;SHT31;51008;51.504;11.548;2022-11-20T16:56:53;-1.70;92.44
64599;SHT31;51008;51.504;11.548;2022-11-20T17:01:54;-1.78;92.73
64599;SHT31;51008;51.504;11.548;2022-11-20T17:06:55;-1.73;92.92
64599;SHT31;51008;51.504;11.548;2022-11-20T17:11:56;-1.75;93.17
64599;SHT31;51008;51.504;11.548;2022-11-20T17:16:57;-1.68;93.19
64599;SHT31;51008;51.504;11.548;2022-11-20T17:21:58;-1.75;93.27
64599;SHT31;51008;51.504;11.548;2022-11-20T17:26:59;-1.74;93.32
64599;SHT31;51008;51.504;11.548;2022-11-20T17:32:00;-1.77;93.48
64599;SHT31;51008;51.504;11.548;2022-11-20T17:37:01;-1.78;93.22
64599;SHT31;51008;51.504;11.548;2022-11-20T17:42:02;-1.78;93.82
64599;SHT31;51008;51.504;11.548;2022-11-20T17:47:03;-1.70;94.20
64599;SHT31;51008;51.504;11.548;2022-11-20T17:52:04;-1.78;94.06
64599;SHT31;51008;51.504;11.548;2022-11-20T17:57:05;-1.77;94.13
64599;SHT31;51008;51.504;11.548;2022-11-20T18:02:06;-1.74;94.34
64599;SHT31;51008;51.504;11.548;2022-11-20T18:07:07;-1.60;93.85
64599;SHT31;51008;51.504;11.548;2022-11-20T18:12:08;-1.57;93.66
64599;SHT31;51008;51.504;11.548;2022-11-20T18:17:11;-1.57;93.60
64599;SHT31;51008;51.504;11.548;2022-11-20T18:22:14;-1.55;93.50
64599;SHT31;51008;51.504;11.548;2022-11-20T18:27:18;-1.45;93.28
64599;SHT31;51008;51.504;11.548;2022-11-20T18:32:20;-1.43;93.42
64599;SHT31;51008;51.504;11.548;2022-11-20T18:37:21;-1.43;93.59
64599;SHT31;51008;51.504;11.548;2022-11-20T18:42:22;-1.40;93.44
64599;SHT31;51008;51.504;11.548;2022-11-20T18:47:26;-1.35;93.59
64599;SHT31;51008;51.504;11.548;2022-11-20T18:57:29;-1.09;92.60
64599;SHT31;51008;51.504;11.548;2022-11-20T19:02:31;-1.19;92.79
64599;SHT31;51008;51.504;11.548;2022-11-20T19:07:31;-1.21;93.13
64599;SHT31;51008;51.504;11.548;2022-11-20T19:12:32;-1.24;93.32
64599;SHT31;51008;51.504;11.548;2022-11-20T19:17:33;-1.19;93.41
64599;SHT31;51008;51.504;11.548;2022-11-20T19:22:34;-1.11;92.65
64599;SHT31;51008;51.504;11.548;2022-11-20T19:27:35;-1.19;93.06
64599;SHT31;51008;51.504;11.548;2022-11-20T19:32:36;-1.19;92.99
64599;SHT31;51008;51.504;11.548;2022-11-20T19:37:37;-1.18;93.04
64599;SHT31;51008;51.504;11.548;2022-11-20T19:42:39;-1.15;92.69
64599;SHT31;51008;51.504;11.548;2022-11-20T19:47:39;-1.13;92.78
64599;SHT31;51008;51.504;11.548;2022-11-20T19:52:41;-1.08;92.75
64599;SHT31;51008;51.504;11.548;2022-11-20T19:57:41;-1.11;92.74
64599;SHT31;51008;51.504;11.548;2022-11-20T20:02:43;-1.15;93.09
64599;SHT31;51008;51.504;11.548;2022-11-20T20:07:44;-1.09;93.41
64599;SHT31;51008;51.504;11.548;2022-11-20T20:12:45;-1.08;93.37
64599;SHT31;51008;51.504;11.548;2022-11-20T20:17:46;-1.09;93.44
64599;SHT31;51008;51.504;11.548;2022-11-20T20:22:47;-1.13;93.65
64599;SHT31;51008;51.504;11.548;2022-11-20T20:27:48;-1.08;93.63
64599;SHT31;51008;51.504;11.548;2022-11-20T20:32:49;-1.04;93.71
64599;SHT31;51008;51.504;11.548;2022-11-20T20:37:50;-1.00;93.92
64599;SHT31;51008;51.504;11.548;2022-11-20T20:42:51;-0.97;93.94
64599;SHT31;51008;51.504;11.548;2022-11-20T20:47:52;-1.04;93.78
64599;SHT31;51008;51.504;11.548;2022-11-20T20:52:53;-1.12;94.17
64599;SHT31;51008;51.504;11.548;2022-11-20T20:57:54;-1.13;94.29
64599;SHT31;51008;51.504;11.548;2022-11-20T21:02:55;-1.16;94.47
64599;SHT31;51008;51.504;11.548;2022-11-20T21:07:56;-1.12;94.49
64599;SHT31;51008;51.504;11.548;2022-11-20T21:12:57;-1.13;94.63
64599;SHT31;51008;51.504;11.548;2022-11-20T21:17:57;-1.13;94.78
64599;SHT31;51008;51.504;11.548;2022-11-20T21:22:58;-1.13;95.10
64599;SHT31;51008;51.504;11.548;2022-11-20T21:27:59;-1.16;95.46
64599;SHT31;51008;51.504;11.548;2022-11-20T21:33:00;-1.29;96.30
64599;SHT31;51008;51.504;11.548;2022-11-20T21:38:01;-1.25;96.47
64599;SHT31;51008;51.504;11.548;2022-11-20T21:43:02;-1.24;96.42
64599;SHT31;51008;51.504;11.548;2022-11-20T21:48:04;-1.19;96.26
64599;SHT31;51008;51.504;11.548;2022-11-20T21:53:05;-1.21;96.57
64599;SHT31;51008;51.504;11.548;2022-11-20T21:58:06;-1.28;97.26
64599;SHT31;51008;51.504;11.548;2022-11-20T22:03:07;-1.27;97.48
64599;SHT31;51008;51.504;11.548;2022-11-20T22:08:08;-1.28;97.59
64599;SHT31;51008;51.504;11.548;2022-11-20T22:13:09;-1.27;97.53
64599;SHT31;51008;51.504;11.548;2022-11-20T22:18:10;-1.27;97.51
64599;SHT31;51008;51.504;11.548;2022-11-20T22:23:11;-1.25;97.57
64599;SHT31;51008;51.504;11.548;2022-11-20T22:28:12;-1.40;97.91
64599;SHT31;51008;51.504;11.548;2022-11-20T22:33:13;-1.53;98.51
64599;SHT31;51008;51.504;11.548;2022-11-20T22:38:14;-1.52;98.48
64599;SHT31;51008;51.504;11.548;2022-11-20T22:43:15;-1.52;98.66
64599;SHT31;51008;51.504;11.548;2022-11-20T22:48:16;-1.55;99.12
64599;SHT31;51008;51.504;11.548;2022-11-20T22:53:17;-1.46;99.20
64599;SHT31;51008;51.504;11.548;2022-11-20T22:58:18;-1.45;99.25
64599;SHT31;51008;51.504;11.548;2022-11-20T23:03:18;-1.47;99.43
64599;SHT31;51008;51.504;11.548;2022-11-20T23:08:20;-1.50;99.48
64599;SHT31;51008;51.504;11.548;2022-11-20T23:13:20;-1.43;99.39
64599;SHT31;51008;51.504;11.548;2022-11-20T23:18:21;-1.39;99.11
64599;SHT31;51008;51.504;11.548;2022-11-20T23:23:22;-1.39;98.94
64599;SHT31;51008;51.504;11.548;2022-11-20T23:28:23;-1.45;99.27
64599;SHT31;51008;51.504;11.548;2022-11-20T23:33:24;-1.36;99.10
64599;SHT31;51008;51.504;11.548;2022-11-20T23:38:25;-1.31;99.00
64599;SHT31;51008;51.504;11.548;2022-11-20T23:43:26;-1.31;98.94
64599;SHT31;51008;51.504;11.548;2022-11-20T23:48:29;-1.38;99.25
64599;SHT31;51008;51.504;11.548;2022-11-20T23:53:31;-1.35;99.26
64599;SHT31;51008;51.504;11.548;2022-11-20T23:58:34;-1.39;99.67
